Time;durP1;ratioP1;P1;durP2;ratioP2;P2;SDS_P1;SDS_P2;PMS_P1;PMS_P2;Temp;Humidity;BMP_temperature;BMP_pressure;BME280_temperature;BME280_humidity;BME280_pressure;Samples;Min_cycle;Max_cycle;Signal;HPM_P1;HPM_P2
2021/08/13 00:02:19;;;;;;;11.10;6.07;;;563.50;2252.80;;;;;;5033971;28;20036;-84
2021/08/13 00:04:54;;;;;;;14.80;7.28;;;563.40;2252.80;;;;;;5033238;28;20037;-85
2021/08/13 00:07:27;;;;;;;13.85;7.20;;;563.50;2252.80;;;;;;5033240;28;20044;-84
2021/08/13 00:09:53;;;;;;;9.05;5.78;;;563.30;2278.40;;;;;;5034595;28;20048;-84
2021/08/13 00:12:19;;;;;;;11.48;6.80;;;563.30;2278.40;;;;;;5034468;28;20052;-86
2021/08/13 00:14:44;;;;;;;10.18;6.15;;;563.30;2304.00;;;;;;5033402;28;20052;-85
2021/08/13 00:17:10;;;;;;;11.23;6.15;;;563.20;2304.00;;;;;;5033902;28;20017;-87
2021/08/13 00:19:36;;;;;;;11.73;6.13;;;563.20;2304.00;;;;;;5034007;28;20018;-86
2021/08/13 00:22:08;;;;;;;10.25;6.43;;;538.50;2278.40;;;;;;5034051;28;20048;-85
2021/08/13 00:24:34;;;;;;;11.90;6.40;;;538.40;2278.40;;;;;;5034448;28;20018;-87
2021/08/13 00:27:05;;;;;;;10.02;5.75;;;538.40;2278.40;;;;;;5033820;28;20550;-84
2021/08/13 00:29:31;;;;;;;12.05;6.85;;;538.40;2304.00;;;;;;5034003;28;20052;-85
2021/08/13 00:31:57;;;;;;;11.90;5.72;;;538.10;2304.00;;;;;;5031926;28;20072;-89
2021/08/13 00:34:33;;;;;;;13.60;5.28;;;538.10;2329.60;;;;;;5034300;28;20537;-88
2021/08/13 00:36:59;;;;;;;8.18;5.63;;;538.10;2329.60;;;;;;5033750;28;20482;-85
2021/08/13 00:40:10;;;;;;;;;;;;;;;;;;;;;
2021/08/13 00:45:48;;;;;;;11.10;6.10;;;538.10;2329.60;;;;;;5029891;28;20021;-86
2021/08/13 00:48:38;;;;;;;11.85;6.03;;;538.00;2355.20;;;;;;5035302;28;20057;-89
2021/08/13 00:54:41;;;;;;;10.25;6.28;;;538.10;2329.60;;;;;;5013254;28;20022;-85
2021/08/13 00:57:10;;;;;;;7.88;5.72;;;538.10;2329.60;;;;;;5034369;28;20109;-86
2021/08/13 00:59:40;;;;;;;7.20;5.50;;;538.10;2380.80;;;;;;5034009;28;20495;-85
2021/08/13 01:02:07;;;;;;;10.77;5.25;;;538.20;2355.20;;;;;;5034309;28;20029;-88
2021/08/13 01:04:52;;;;;;;10.27;5.80;;;487.30;2329.60;;;;;;5034030;28;20028;-87
2021/08/13 01:07:18;;;;;;;9.55;5.15;;;537.90;2380.80;;;;;;5032309;28;20022;-87
2021/08/13 01:09:44;;;;;;;10.38;5.60;;;537.90;2380.80;;;;;;5033032;28;20021;-84
2021/08/13 01:12:28;;;;;;;10.73;5.50;;;537.60;2380.80;;;;;;5032830;28;20060;-85
2021/08/13 01:15:07;;;;;;;11.52;5.55;;;537.90;2380.80;;;;;;5031493;28;20051;-81
2021/08/13 01:17:50;;;;;;;9.48;6.32;;;538.00;2380.80;;;;;;5032463;28;20473;-84
2021/08/13 01:20:33;;;;;;;12.55;6.88;;;537.90;2380.80;;;;;;5027992;28;20025;-83
2021/08/13 01:23:02;;;;;;;;;;;537.60;2406.40;;;;;;5031709;28;20021;-85
2021/08/13 01:25:33;;;;;;;9.20;6.05;;;537.80;2406.40;;;;;;5031819;28;19913;-81
2021/08/13 01:28:08;;;;;;;9.27;5.32;;;537.80;2406.40;;;;;;5032251;28;20392;-85
2021/08/13 01:30:37;;;;;;;11.88;5.88;;;537.80;2406.40;;;;;;5031582;28;20052;-85
2021/08/13 01:33:08;;;;;;;9.73;5.85;;;512.90;2380.80;;;;;;5033182;28;20029;-83
2021/08/13 01:35:38;;;;;;;9.93;5.88;;;512.90;2380.80;;;;;;5032154;28;20113;-83
2021/08/13 01:38:27;;;;;;;11.07;5.93;;;512.70;2380.80;;;;;;5032793;28;20036;-84
2021/08/13 01:40:57;;;;;;;8.70;5.18;;;512.90;2380.80;;;;;;5036693;28;20029;-83
2021/08/13 01:43:24;;;;;;;12.48;5.85;;;537.60;2406.40;;;;;;5028288;28;20021;-82
2021/08/13 01:45:51;;;;;;;10.75;5.78;;;537.60;2406.40;;;;;;5036125;28;20030;-82
2021/08/13 01:48:19;;;;;;;10.23;5.32;;;537.60;2406.40;;;;;;5036391;28;20029;-84
2021/08/13 01:50:46;;;;;;;10.60;6.30;;;512.90;2380.80;;;;;;5033590;28;20104;-82
2021/08/13 01:53:14;;;;;;;10.43;5.53;;;537.60;2406.40;;;;;;5035965;28;20027;-83
2021/08/13 01:55:41;;;;;;;8.55;5.65;;;537.60;2406.40;;;;;;5036088;28;20017;-84
2021/08/13 01:58:07;;;;;;;7.93;5.50;;;512.90;2380.80;;;;;;5035804;28;20018;-84
2021/08/13 02:00:35;;;;;;;10.05;5.88;;;512.80;2380.80;;;;;;5035961;28;20363;-85
2021/08/13 02:03:02;;;;;;;9.18;5.88;;;512.70;2380.80;;;;;;5036265;28;20366;-85
2021/08/13 02:05:30;;;;;;;9.32;5.53;;;512.60;2380.80;;;;;;5035887;28;20021;-85
2021/08/13 02:08:03;;;;;;;7.80;5.35;;;512.60;2380.80;;;;;;5037691;28;20220;-84
2021/08/13 02:10:30;;;;;;;8.35;5.82;;;512.60;2380.80;;;;;;5035927;28;20526;-86
2021/08/13 02:12:56;;;;;;;8.38;4.88;;;512.70;2380.80;;;;;;5036009;28;20033;-86
2021/08/13 02:15:22;;;;;;;8.30;5.45;;;512.60;2380.80;;;;;;5035883;28;20075;-83
2021/08/13 02:18:02;;;;;;;8.02;5.13;;;512.70;2380.80;;;;;;5036009;28;20034;-83
2021/08/13 02:20:30;;;;;;;8.98;5.07;;;512.70;2380.80;;;;;;5035746;28;20029;-81
2021/08/13 02:22:57;;;;;;;10.40;5.63;;;512.60;2380.80;;;;;;5035499;28;20108;-83
2021/08/13 02:25:23;;;;;;;10.55;5.32;;;512.60;2380.80;;;;;;5037001;28;20033;-82
2021/08/13 02:27:50;;;;;;;12.55;5.72;;;512.60;2380.80;;;;;;5019199;28;20029;-84
2021/08/13 02:30:16;;;;;;;14.63;5.68;;;512.10;2380.80;;;;;;5019381;28;20112;-84
2021/08/13 02:32:41;;;;;;;7.57;5.50;;;512.20;2380.80;;;;;;5018940;28;20117;-86
2021/08/13 02:35:08;;;;;;;9.15;5.40;;;512.30;2380.80;;;;;;5018960;28;20072;-85
2021/08/13 02:38:03;;;;;;;11.55;5.95;;;512.20;2380.80;;;;;;5019166;28;20021;-85
2021/08/13 02:40:36;;;;;;;9.00;6.85;;;512.40;2380.80;;;;;;5019444;28;20477;-85
2021/08/13 02:43:09;;;;;;;9.27;5.68;;;512.20;2380.80;;;;;;5020033;28;20032;-85
2021/08/13 02:45:44;;;;;;;9.38;6.30;;;512.30;2380.80;;;;;;5020169;28;20026;-84
2021/08/13 02:48:10;;;;;;;7.72;5.72;;;512.40;2380.80;;;;;;5024251;28;20089;-83
2021/08/13 02:50:39;;;;;;;8.73;5.90;;;512.50;2380.80;;;;;;5030526;28;20113;-82
2021/08/13 02:53:12;;;;;;;8.27;5.35;;;512.20;2380.80;;;;;;5030482;28;20025;-83
2021/08/13 02:55:46;;;;;;;8.10;5.47;;;512.00;2380.80;;;;;;5019767;28;20032;-85
2021/08/13 02:58:17;;;;;;;11.63;6.45;;;512.00;2380.80;;;;;;5019093;28;20451;-85
2021/08/13 03:00:44;;;;;;;11.88;6.18;;;487.30;2380.80;;;;;;5018892;28;20026;-85
2021/08/13 03:03:12;;;;;;;8.85;5.90;;;512.20;2380.80;;;;;;5018805;28;20136;-84
2021/08/13 03:05:46;;;;;;;11.52;6.10;;;487.30;2380.80;;;;;;5021267;28;20025;-79
2021/08/13 03:08:12;;;;;;;9.90;5.53;;;512.00;2380.80;;;;;;5018979;28;20240;-82
2021/08/13 03:10:39;;;;;;;8.90;5.28;;;512.10;2380.80;;;;;;5034095;28;20033;-80
2021/08/13 03:13:06;;;;;;;10.50;5.57;;;512.10;2380.80;;;;;;5039812;28;20025;-79
2021/08/13 03:15:32;;;;;;;10.07;5.63;;;512.10;2380.80;;;;;;5040029;28;20025;-81
2021/08/13 03:18:00;;;;;;;9.32;5.47;;;512.10;2380.80;;;;;;5040608;28;20017;-82
2021/08/13 03:20:26;;;;;;;12.23;5.63;;;512.30;2380.80;;;;;;5040457;28;20028;-81
2021/08/13 03:22:53;;;;;;;9.85;5.70;;;512.30;2380.80;;;;;;5039977;28;20045;-80
2021/08/13 03:25:19;;;;;;;12.02;6.47;;;512.30;2380.80;;;;;;5040172;28;20052;-80
2021/08/13 03:27:45;;;;;;;7.45;5.47;;;512.20;2380.80;;;;;;5035364;28;20355;-85
2021/08/13 03:30:12;;;;;;;11.63;5.93;;;512.10;2380.80;;;;;;5019283;28;20033;-86
2021/08/13 03:32:39;;;;;;;10.27;6.25;;;512.00;2380.80;;;;;;5018701;28;20119;-84
2021/08/13 03:35:06;;;;;;;9.73;5.78;;;512.10;2380.80;;;;;;5018723;28;20068;-84
2021/08/13 03:37:32;;;;;;;10.88;5.57;;;512.10;2380.80;;;;;;5018515;28;20121;-84
2021/08/13 03:39:58;;;;;;;9.38;5.88;;;512.10;2380.80;;;;;;5019075;28;20017;-84
2021/08/13 03:42:24;;;;;;;9.32;6.20;;;487.30;2380.80;;;;;;5019056;28;20053;-86
2021/08/13 03:44:49;;;;;;;8.10;5.90;;;487.20;2380.80;;;;;;5018623;28;20031;-85
2021/08/13 03:47:15;;;;;;;13.88;5.78;;;487.00;2380.80;;;;;;5018689;28;20021;-85
2021/08/13 03:49:41;;;;;;;12.35;6.75;;;487.20;2380.80;;;;;;5036562;28;20017;-85
2021/08/13 03:52:07;;;;;;;9.82;6.03;;;487.20;2380.80;;;;;;5017771;28;20454;-84
2021/08/13 03:54:32;;;;;;;9.10;5.85;;;487.10;2380.80;;;;;;5017843;28;20029;-86
2021/08/13 03:56:58;;;;;;;11.32;6.38;;;487.10;2380.80;;;;;;5018019;28;20028;-86
2021/08/13 03:59:24;;;;;;;9.10;6.07;;;487.10;2380.80;;;;;;5017651;28;20017;-85
2021/08/13 04:01:50;;;;;;;9.43;5.78;;;487.00;2380.80;;;;;;5017187;28;20037;-85
2021/08/13 04:04:15;;;;;;;11.27;6.18;;;487.10;2380.80;;;;;;5017485;28;20021;-85
2021/08/13 04:06:41;;;;;;;10.30;7.28;;;487.10;2380.80;;;;;;5017626;28;20417;-84
2021/08/13 04:09:07;;;;;;;12.10;6.07;;;486.80;2380.80;;;;;;5017530;28;20036;-83
2021/08/13 04:11:33;;;;;;;13.43;6.25;;;486.80;2380.80;;;;;;5017241;28;20459;-85
2021/08/13 04:13:59;;;;;;;15.85;6.32;;;487.00;2380.80;;;;;;5017374;28;20048;-83
2021/08/13 04:16:24;;;;;;;13.75;6.35;;;487.10;2380.80;;;;;;5017409;28;20112;-85
2021/08/13 04:18:50;;;;;;;12.88;6.03;;;487.20;2380.80;;;;;;5017044;28;20459;-85
2021/08/13 04:21:16;;;;;;;8.38;5.80;;;487.20;2380.80;;;;;;5017383;28;20025;-83
2021/08/13 04:23:42;;;;;;;13.63;6.28;;;487.00;2380.80;;;;;;5017297;28;20052;-85
2021/08/13 04:26:07;;;;;;;16.90;8.13;;;486.70;2380.80;;;;;;5016710;28;20049;-83
2021/08/13 04:28:33;;;;;;;17.92;7.45;;;486.80;2380.80;;;;;;5017218;28;20481;-82
2021/08/13 04:30:59;;;;;;;15.88;7.53;;;487.00;2380.80;;;;;;5016951;28;20025;-83
2021/08/13 04:33:25;;;;;;;18.70;8.65;;;486.90;2380.80;;;;;;5016866;28;20029;-85
2021/08/13 04:35:51;;;;;;;13.02;6.78;;;486.90;2380.80;;;;;;5017015;28;20032;-84
2021/08/13 04:38:17;;;;;;;13.95;7.47;;;486.80;2380.80;;;;;;5017140;28;20111;-85
2021/08/13 04:40:44;;;;;;;11.77;6.25;;;487.00;2380.80;;;;;;5016889;28;20025;-85
2021/08/13 04:43:11;;;;;;;13.32;6.95;;;487.00;2380.80;;;;;;5016939;28;20408;-85
2021/08/13 04:45:37;;;;;;;17.88;7.00;;;486.90;2380.80;;;;;;5016808;28;20439;-83
2021/08/13 04:48:02;;;;;;;12.38;6.78;;;486.70;2380.80;;;;;;5016711;28;20021;-85
2021/08/13 04:50:28;;;;;;;13.07;5.78;;;486.70;2380.80;;;;;;5034869;28;20031;-84
2021/08/13 04:52:54;;;;;;;12.43;6.38;;;486.70;2380.80;;;;;;5016776;28;20025;-84
2021/08/13 04:55:22;;;;;;;10.93;6.32;;;486.70;2380.80;;;;;;5016568;28;20421;-83
2021/08/13 04:57:48;;;;;;;14.45;7.93;;;486.70;2380.80;;;;;;5016708;28;20032;-84
2021/08/13 05:00:15;;;;;;;14.82;6.65;;;486.70;2380.80;;;;;;5016283;28;20025;-83
2021/08/13 05:02:41;;;;;;;11.98;7.15;;;486.60;2380.80;;;;;;5016497;28;20415;-84
2021/08/13 05:05:07;;;;;;;11.88;6.97;;;487.00;2380.80;;;;;;5016816;28;20056;-84
2021/08/13 05:07:33;;;;;;;14.77;7.93;;;487.10;2380.80;;;;;;5016600;28;20068;-83
2021/08/13 05:10:05;;;;;;;13.05;7.15;;;487.30;2380.80;;;;;;5016684;28;20139;-84
2021/08/13 05:12:31;;;;;;;10.95;7.15;;;487.30;2380.80;;;;;;5016150;28;20029;-85
2021/08/13 05:14:57;;;;;;;13.18;7.95;;;512.10;2380.80;;;;;;5016129;28;20502;-84
2021/08/13 05:17:23;;;;;;;14.75;7.40;;;487.30;2380.80;;;;;;5016458;28;20033;-85
2021/08/13 05:19:48;;;;;;;15.43;8.48;;;512.00;2380.80;;;;;;5016310;28;20021;-83
2021/08/13 05:22:14;;;;;;;17.52;9.65;;;512.00;2380.80;;;;;;5016206;28;20037;-84
2021/08/13 05:24:40;;;;;;;12.32;7.07;;;487.30;2380.80;;;;;;5033758;28;20025;-84
2021/08/13 05:27:06;;;;;;;11.50;8.05;;;512.10;2380.80;;;;;;5015876;28;20041;-82
2021/08/13 05:29:32;;;;;;;15.32;8.65;;;512.20;2380.80;;;;;;5016187;28;20021;-85
2021/08/13 05:31:57;;;;;;;10.13;6.40;;;512.40;2380.80;;;;;;5016362;28;20033;-84
2021/08/13 05:34:23;;;;;;;11.18;6.45;;;512.40;2380.80;;;;;;5016116;28;20459;-83
2021/08/13 05:36:49;;;;;;;11.85;6.28;;;512.30;2380.80;;;;;;5015931;28;20387;-83
2021/08/13 05:39:15;;;;;;;8.32;5.80;;;512.50;2380.80;;;;;;5016111;28;20018;-84
2021/08/13 05:41:40;;;;;;;9.75;6.35;;;512.50;2380.80;;;;;;5016463;28;20056;-83
2021/08/13 05:44:06;;;;;;;9.13;5.80;;;512.70;2380.80;;;;;;5015582;28;20434;-85
2021/08/13 05:46:32;;;;;;;10.45;5.82;;;512.90;2380.80;;;;;;5016188;28;20021;-84
2021/08/13 05:48:58;;;;;;;10.48;6.25;;;512.90;2380.80;;;;;;5016006;28;20021;-81
2021/08/13 05:51:24;;;;;;;12.88;7.00;;;537.60;2406.40;;;;;;5016081;28;20108;-83
2021/08/13 05:53:50;;;;;;;11.55;6.35;;;537.80;2406.40;;;;;;5016051;28;20032;-83
2021/08/13 05:56:15;;;;;;;11.10;6.50;;;537.60;2406.40;;;;;;5015651;28;20028;-83
2021/08/13 05:58:41;;;;;;;8.73;5.53;;;537.60;2406.40;;;;;;5016051;28;20017;-83
2021/08/13 06:01:07;;;;;;;9.27;6.15;;;537.80;2406.40;;;;;;5015983;28;20022;-83
2021/08/13 06:03:33;;;;;;;10.35;6.20;;;537.80;2406.40;;;;;;5015664;28;20049;-82
2021/08/13 06:05:59;;;;;;;11.75;7.30;;;537.80;2406.40;;;;;;5016051;28;20021;-83
2021/08/13 06:08:24;;;;;;;10.02;6.80;;;537.90;2406.40;;;;;;5016099;28;20072;-83
2021/08/13 06:10:50;;;;;;;15.02;7.82;;;537.90;2406.40;;;;;;5033142;28;20052;-84
2021/08/13 06:13:17;;;;;;;13.38;7.35;;;538.10;2406.40;;;;;;5015941;28;20414;-82
2021/08/13 06:15:43;;;;;;;15.38;8.05;;;538.20;2406.40;;;;;;5015611;28;20026;-81
2021/08/13 06:18:09;;;;;;;13.90;7.68;;;538.50;2406.40;;;;;;5015637;28;20028;-84
2021/08/13 06:20:35;;;;;;;12.40;7.22;;;563.20;2432.00;;;;;;5015847;28;20156;-83
2021/08/13 06:23:01;;;;;;;14.02;7.03;;;563.40;2432.00;;;;;;5015888;28;20025;-83
2021/08/13 06:25:27;;;;;;;10.98;6.60;;;563.50;2432.00;;;;;;5035473;28;20100;-81
2021/08/13 06:27:52;;;;;;;13.52;5.88;;;563.60;2432.00;;;;;;5019465;28;20022;-82
2021/08/13 06:30:21;;;;;;;9.18;5.75;;;563.70;2432.00;;;;;;5019689;28;20459;-84
2021/08/13 06:32:47;;;;;;;11.10;6.32;;;563.80;2432.00;;;;;;5019093;28;20026;-83
2021/08/13 06:35:13;;;;;;;10.45;5.95;;;564.00;2432.00;;;;;;5020872;28;20051;-83
2021/08/13 06:37:48;;;;;;;13.43;6.28;;;564.10;2432.00;;;;;;5022412;28;20053;-83
2021/08/13 06:40:14;;;;;;;18.58;7.32;;;588.80;2432.00;;;;;;5020945;28;20017;-82
2021/08/13 06:42:40;;;;;;;11.05;5.95;;;589.00;2432.00;;;;;;5019131;28;20454;-83
2021/08/13 06:45:08;;;;;;;9.07;5.63;;;589.10;2432.00;;;;;;5020046;28;20025;-82
2021/08/13 06:47:34;;;;;;;10.13;5.60;;;589.20;2432.00;;;;;;5022189;28;20371;-83
2021/08/13 06:50:00;;;;;;;10.13;6.07;;;589.40;2432.00;;;;;;5021929;28;20029;-82
2021/08/13 06:52:26;;;;;;;14.98;7.07;;;589.60;2432.00;;;;;;5022635;28;20026;-81
2021/08/13 06:54:52;;;;;;;12.80;6.60;;;589.60;2432.00;;;;;;5020807;28;20033;-83
2021/08/13 06:57:18;;;;;;;11.75;6.20;;;589.70;2432.00;;;;;;5018858;28;20032;-82
2021/08/13 06:59:43;;;;;;;16.25;8.13;;;589.70;2432.00;;;;;;5018483;28;20447;-82
2021/08/13 07:02:09;;;;;;;14.02;7.13;;;614.50;2432.00;;;;;;5018798;28;20099;-82
2021/08/13 07:04:35;;;;;;;12.30;7.18;;;614.60;2432.00;;;;;;5018606;28;20021;-83
2021/08/13 07:07:01;;;;;;;13.05;6.95;;;614.90;2432.00;;;;;;5018186;28;20071;-82
2021/08/13 07:09:27;;;;;;;15.30;5.85;;;614.90;2432.00;;;;;;5018687;28;20113;-83
2021/08/13 07:11:52;;;;;;;15.40;7.20;;;614.90;2406.40;;;;;;5018639;28;20036;-83
2021/08/13 07:14:18;;;;;;;11.70;7.05;;;615.10;2406.40;;;;;;5019999;28;20371;-83
2021/08/13 07:16:44;;;;;;;14.13;7.07;;;640.10;2380.80;;;;;;5021572;28;20117;-83
2021/08/13 07:19:10;;;;;;;11.48;6.13;;;640.10;2355.20;;;;;;5028951;28;20030;-83
2021/08/13 07:21:35;;;;;;;12.25;6.05;;;640.00;2380.80;;;;;;5029108;28;20052;-84
2021/08/13 07:24:01;;;;;;;10.15;7.05;;;640.50;2329.60;;;;;;5025058;28;20108;-83
2021/08/13 07:26:27;;;;;;;13.10;6.90;;;640.50;2304.00;;;;;;5017972;28;20048;-82
2021/08/13 07:28:53;;;;;;;13.35;8.38;;;640.50;2278.40;;;;;;5018307;28;20087;-82
2021/08/13 07:31:19;;;;;;;10.95;6.32;;;;;;;;;;5018439;28;20037;-83
2021/08/13 07:33:44;;;;;;;11.48;5.43;;;665.60;2201.60;;;;;;5018208;28;20104;-83
2021/08/13 07:36:10;;;;;;;8.00;4.70;;;665.60;2176.00;;;;;;5017385;28;20164;-83
2021/08/13 07:38:40;;;;;;;13.93;11.07;;;665.60;2124.80;;;;;;5018311;28;20028;-81
2021/08/13 07:41:10;;;;;;;11.63;7.10;;;665.90;2124.80;;;;;;5017900;28;20463;-82
2021/08/13 07:43:37;;;;;;;8.50;5.63;;;666.10;2124.80;;;;;;5017932;28;20028;-83
2021/08/13 07:46:04;;;;;;;9.30;5.82;;;666.30;2099.20;;;;;;5017716;28;20112;-83
2021/08/13 07:48:30;;;;;;;12.82;5.53;;;666.50;2124.80;;;;;;5017926;28;20022;-84
2021/08/13 07:50:56;;;;;;;10.85;5.88;;;691.30;2124.80;;;;;;5017792;28;20075;-83
2021/08/13 07:53:22;;;;;;;11.60;6.43;;;691.30;2124.80;;;;;;5017671;28;20116;-83
2021/08/13 07:55:48;;;;;;;11.10;5.57;;;691.30;2124.80;;;;;;5017557;28;20473;-81
2021/08/13 07:58:14;;;;;;;10.93;7.85;;;691.50;2124.80;;;;;;5017579;28;20028;-82
2021/08/13 08:00:40;;;;;;;17.25;8.70;;;691.70;2099.20;;;;;;5017616;28;20025;-82
2021/08/13 08:03:07;;;;;;;10.80;5.95;;;691.90;2099.20;;;;;;5017236;28;20045;-82
2021/08/13 08:05:33;;;;;;;9.85;6.45;;;692.10;2073.60;;;;;;5017792;28;20112;-83
2021/08/13 08:07:59;;;;;;;9.05;5.18;;;716.80;2099.20;;;;;;5017753;28;20021;-82
2021/08/13 08:10:25;;;;;;;7.72;5.32;;;716.80;2048.00;;;;;;5017687;28;20070;-84
2021/08/13 08:12:51;;;;;;;11.13;5.55;;;717.10;2073.60;;;;;;5017649;28;20034;-82
2021/08/13 08:15:17;;;;;;;7.47;4.43;;;717.10;2022.40;;;;;;5017441;28;20060;-83
2021/08/13 08:17:43;;;;;;;9.32;5.25;;;717.20;2022.40;;;;;;5017466;28;20021;-84
2021/08/13 08:20:09;;;;;;;12.50;5.88;;;717.40;2022.40;;;;;;5017335;28;20032;-82
2021/08/13 08:22:35;;;;;;;9.77;5.50;;;717.50;1996.80;;;;;;5017355;28;20370;-82
2021/08/13 08:25:02;;;;;;;6.85;5.00;;;717.10;1996.80;;;;;;5016917;28;20167;-83
2021/08/13 08:27:28;;;;;;;8.40;5.20;;;717.50;1971.20;;;;;;5017155;28;20036;-84
2021/08/13 08:29:53;;;;;;;10.88;5.35;;;717.70;1996.80;;;;;;5017257;28;20021;-83
2021/08/13 08:32:19;;;;;;;8.75;5.10;;;742.50;1971.20;;;;;;5016862;28;20107;-83
2021/08/13 08:34:45;;;;;;;8.00;5.25;;;742.50;1971.20;;;;;;5034631;28;20025;-82
2021/08/13 08:37:12;;;;;;;13.52;5.13;;;742.70;1920.00;;;;;;5016805;28;20451;-83
2021/08/13 08:39:38;;;;;;;8.70;4.90;;;742.80;1868.80;;;;;;5016940;28;20451;-83
2021/08/13 08:42:25;;;;;;;9.18;4.15;;;742.90;1868.80;;;;;;5016888;28;20375;-81
2021/08/13 08:44:51;;;;;;;7.50;4.30;;;743.00;1843.20;;;;;;5016310;28;20074;-82
2021/08/13 08:47:20;;;;;;;6.30;4.28;;;743.10;1843.20;;;;;;5034100;28;20030;-83
2021/08/13 08:49:50;;;;;;;8.07;4.55;;;742.90;1817.60;;;;;;5016288;28;20025;-82
2021/08/13 08:52:17;;;;;;;9.68;4.82;;;742.80;1843.20;;;;;;5016280;28;20021;-83
2021/08/13 08:54:45;;;;;;;6.30;4.13;;;743.10;1817.60;;;;;;5016719;28;20021;-82
2021/08/13 08:57:11;;;;;;;7.78;3.90;;;743.20;1817.60;;;;;;5016267;28;20025;-81
2021/08/13 08:59:37;;;;;;;8.15;4.53;;;743.30;1766.40;;;;;;5016582;28;20098;-83
2021/08/13 09:02:03;;;;;;;10.02;4.97;;;768.10;1766.40;;;;;;5019588;28;20523;-82
2021/08/13 09:04:29;;;;;;;8.93;4.25;;;768.40;1766.40;;;;;;5016220;28;20108;-81
2021/08/13 09:06:54;;;;;;;6.50;4.30;;;768.80;1715.20;;;;;;5016129;28;20171;-80
2021/08/13 09:09:20;;;;;;;6.35;4.00;;;768.70;1689.60;;;;;;5016284;28;20459;-81
2021/08/13 09:24:19;;;;;;;12.88;4.38;;;794.00;1715.20;;;;;;5070054;23;20053;-86
2021/08/13 10:30:48;;;;;;;8.80;4.10;;;845.70;1484.80;;;;;;4348386;23;20052;-83
2021/08/13 10:33:14;;;;;;;6.85;4.50;;;870.50;1459.20;;;;;;5017912;28;20091;-82
2021/08/13 10:35:51;;;;;;;15.32;4.38;;;870.70;1510.40;;;;;;5018170;28;20034;-83
2021/08/13 10:38:19;;;;;;;8.45;4.63;;;870.90;1510.40;;;;;;5048524;28;20025;-85
2021/08/13 10:40:46;;;;;;;7.68;5.15;;;870.70;1510.40;;;;;;5017914;28;20025;-83
2021/08/13 10:43:13;;;;;;;7.60;4.65;;;870.80;1484.80;;;;;;5018188;28;20025;-81
2021/08/13 10:45:41;;;;;;;6.57;4.22;;;870.60;1510.40;;;;;;5018879;28;20018;-80
2021/08/13 10:48:20;;;;;;;6.40;3.95;;;870.80;1484.80;;;;;;5018154;28;20367;-84
2021/08/13 10:50:48;;;;;;;10.73;4.82;;;870.90;1433.60;;;;;;5017837;28;20049;-81
2021/08/13 10:53:40;;;;;;;6.43;4.18;;;870.90;1408.00;;;;;;5018139;28;20375;-85
2021/08/13 10:56:07;;;;;;;7.47;4.30;;;871.10;1408.00;;;;;;5013107;28;20044;-81
2021/08/13 10:58:41;;;;;;;9.48;4.22;;;871.30;1433.60;;;;;;5035841;28;20033;-86
2021/08/13 11:01:21;;;;;;;11.90;4.72;;;871.20;1433.60;;;;;;5018081;28;20025;-82
2021/08/13 11:03:53;;;;;;;16.02;6.65;;;896.00;1433.60;;;;;;5017948;28;20091;-82
2021/08/13 11:06:39;;;;;;;13.10;6.07;;;871.30;1433.60;;;;;;5018666;28;20025;-83
2021/08/13 11:09:08;;;;;;;8.45;4.53;;;896.50;1459.20;;;;;;5018097;28;20025;-83
2021/08/13 11:11:55;;;;;;;11.55;4.88;;;896.70;1459.20;;;;;;5016713;28;20029;-80
2021/08/13 11:14:33;;;;;;;6.63;5.22;;;896.80;1433.60;;;;;;5017915;28;20231;-84
2021/08/13 11:17:00;;;;;;;7.13;5.65;;;921.70;1433.60;;;;;;5018189;28;20079;-81
2021/08/13 11:19:27;;;;;;;12.02;4.55;;;921.80;1433.60;;;;;;5018424;28;20133;-86
2021/08/13 11:22:02;;;;;;;9.60;6.25;;;921.90;1408.00;;;;;;5018501;28;20029;-84
2021/08/13 11:24:50;;;;;;;11.43;6.28;;;922.00;1433.60;;;;;;5017980;28;20371;-82
2021/08/13 11:27:18;;;;;;;5.75;4.40;;;922.00;1433.60;;;;;;5018209;28;20025;-83
2021/08/13 11:29:43;;;;;;;8.43;4.35;;;921.90;1408.00;;;;;;5018195;28;20022;-83
2021/08/13 11:32:17;;;;;;;6.68;4.90;;;922.00;1433.60;;;;;;5026498;28;20045;-84
2021/08/13 11:34:46;;;;;;;6.70;5.13;;;922.30;1408.00;;;;;;5034723;28;20099;-84
2021/08/13 11:37:27;;;;;;;8.90;4.53;;;922.30;1408.00;;;;;;5034652;28;20053;-82
2021/08/13 11:40:02;;;;;;;6.40;4.57;;;922.40;1408.00;;;;;;5034832;28;20327;-82
2021/08/13 11:42:31;;;;;;;7.47;4.75;;;922.40;1382.40;;;;;;5034407;28;20127;-83
2021/08/13 11:44:58;;;;;;;7.15;4.40;;;896.90;1356.80;;;;;;5034375;28;20029;-83
2021/08/13 11:47:24;;;;;;;9.07;5.03;;;896.80;1433.60;;;;;;5034272;28;20021;-84
2021/08/13 11:49:50;;;;;;;7.22;5.22;;;896.80;1382.40;;;;;;5034433;28;20022;-83
2021/08/13 11:52:21;;;;;;;8.32;4.85;;;921.80;1408.00;;;;;;5034357;28;20132;-84
2021/08/13 11:54:47;;;;;;;11.37;4.47;;;922.20;1408.00;;;;;;5033975;28;20399;-81
2021/08/13 11:57:18;;;;;;;6.78;4.32;;;922.50;1356.80;;;;;;5034490;28;20021;-83
2021/08/13 11:59:45;;;;;;;5.70;4.38;;;947.30;1331.20;;;;;;5033549;28;20025;-78
2021/08/13 12:02:11;;;;;;;7.13;5.13;;;921.90;1331.20;;;;;;5033496;28;20055;-79
2021/08/13 12:04:37;;;;;;;8.57;6.03;;;922.40;1356.80;;;;;;5039128;28;20032;-81
2021/08/13 12:07:11;;;;;;;8.80;5.40;;;947.20;1305.60;;;;;;5046651;28;20018;-81
2021/08/13 12:09:43;;;;;;;9.25;5.63;;;947.40;1305.60;;;;;;5044701;28;20017;-81
2021/08/13 12:12:11;;;;;;;10.50;5.88;;;947.90;1305.60;;;;;;5037570;28;20057;-79
2021/08/13 12:14:38;;;;;;;7.40;4.95;;;948.10;1305.60;;;;;;5033460;28;20032;-80
2021/08/13 12:17:05;;;;;;;9.80;5.68;;;973.00;1305.60;;;;;;5033604;28;20029;-82
2021/08/13 12:19:33;;;;;;;8.40;5.30;;;973.00;1305.60;;;;;;5034099;28;20379;-80
2021/08/13 12:22:02;;;;;;;11.60;6.40;;;973.00;1280.00;;;;;;5032703;28;20060;-80
2021/08/13 12:24:34;;;;;;;7.70;5.40;;;948.10;1280.00;;;;;;5033655;28;20021;-82
2021/08/13 12:27:05;;;;;;;11.10;6.57;;;973.00;1331.20;;;;;;5033579;28;20022;-81
2021/08/13 12:29:32;;;;;;;5.95;4.13;;;973.00;1305.60;;;;;;5033341;28;20032;-81
2021/08/13 12:32:00;;;;;;;7.80;5.47;;;972.90;1280.00;;;;;;5032856;28;20049;-80
2021/08/13 12:34:28;;;;;;;7.80;6.78;;;948.10;1305.60;;;;;;5033382;28;20056;-82
2021/08/13 12:37:10;;;;;;;7.72;4.43;;;973.00;1356.80;;;;;;5033121;28;20022;-82
2021/08/13 12:39:38;;;;;;;6.70;4.32;;;;;;;;;;5033096;28;20021;-80
2021/08/13 12:42:05;;;;;;;8.88;5.03;;;;;;;;;;5034211;28;20036;-82
2021/08/13 12:44:33;;;;;;;7.57;4.85;;;973.60;1331.20;;;;;;5034615;28;20071;-82
2021/08/13 12:47:00;;;;;;;8.27;4.80;;;973.40;1331.20;;;;;;5033409;28;20036;-82
2021/08/13 12:49:29;;;;;;;8.55;5.13;;;973.40;1305.60;;;;;;5032838;28;20129;-82
2021/08/13 12:52:15;;;;;;;9.25;6.45;;;973.10;1331.20;;;;;;5033180;28;20040;-81
2021/08/13 12:54:44;;;;;;;9.95;6.53;;;973.10;1331.20;;;;;;5033294;28;20363;-81
2021/08/13 12:57:12;;;;;;;8.73;4.93;;;972.80;1331.20;;;;;;5032839;28;20028;-81
2021/08/13 12:59:48;;;;;;;7.07;5.57;;;948.10;1356.80;;;;;;5033899;28;20048;-83
2021/08/13 13:02:32;;;;;;;8.75;5.07;;;973.30;1331.20;;;;;;5033159;28;20037;-81
2021/08/13 13:05:01;;;;;;;6.97;4.65;;;973.50;1305.60;;;;;;5032807;28;20532;-80
2021/08/13 13:07:35;;;;;;;7.85;4.88;;;973.50;1305.60;;;;;;5033101;28;20022;-83
2021/08/13 13:10:16;;;;;;;5.82;4.60;;;973.60;1305.60;;;;;;5032724;28;20483;-81
2021/08/13 13:12:42;;;;;;;6.07;4.60;;;973.70;1280.00;;;;;;5032864;28;20033;-84
2021/08/13 13:15:29;;;;;;;7.97;4.95;;;973.70;1280.00;;;;;;5032803;28;20029;-82
2021/08/13 13:18:00;;;;;;;11.18;6.80;;;947.90;1280.00;;;;;;5032558;28;20021;-83
2021/08/13 13:20:40;;;;;;;14.25;8.70;;;947.30;1331.20;;;;;;5032753;28;20025;-83
2021/08/13 13:23:06;;;;;;;11.65;6.18;;;922.40;1356.80;;;;;;5032804;28;20116;-81
2021/08/13 13:25:43;;;;;;;10.05;6.07;;;922.00;1356.80;;;;;;5033933;28;20121;-83
2021/08/13 13:28:10;;;;;;;8.77;5.38;;;896.90;1356.80;;;;;;5032522;28;20021;-85
2021/08/13 13:30:40;;;;;;;10.60;6.10;;;896.80;1356.80;;;;;;5032328;28;20076;-83
2021/08/13 13:33:12;;;;;;;7.07;4.30;;;922.30;1356.80;;;;;;5016185;28;20079;-82
2021/08/13 13:35:41;;;;;;;8.93;4.72;;;947.50;1331.20;;;;;;5019387;28;20067;-82
2021/08/13 13:38:08;;;;;;;6.78;4.47;;;947.80;1331.20;;;;;;5020046;28;20028;-83
2021/08/13 13:40:36;;;;;;;9.05;4.28;;;948.10;1331.20;;;;;;5020200;28;20061;-84
2021/08/13 13:43:02;;;;;;;11.70;5.93;;;947.90;1305.60;;;;;;5020272;28;20029;-82
2021/08/13 13:45:28;;;;;;;12.30;7.28;;;947.30;1331.20;;;;;;5019767;28;20021;-83
2021/08/13 13:47:55;;;;;;;7.05;5.97;;;947.70;1331.20;;;;;;5020156;28;20021;-83